Ozan, Arkansas
Current Conditions -  °F | °C
As of 10:53 AM on Thursday 30 Oct 2014 (Local Time) from KTXK Reporting Station
Clear Clear  
Wind Chill: 65°   Ceiling: Unl
Heat Index: 65°   Visibility: 10mi
Dew Point: 46°   Wind: 7mph
Humidity: 50%   Direction: 230°SW
Pressure: 30.18"   Gusts: NA
Location:  33.85°N, 93.72°W
Report Text: KTXK 301553Z 23006KT 10SM CLR 18/08 A3018 RMK AO2 SLP219 T01830078
Loading
Personal Weather Stations






























Interactive Weather Map New forecast layout! Learn more

10-Day Weather Forecast

Advertisements
Track Severe Weather on mobile